Granite Mountain Air Station


Codes: GSZ/GMT
Name: Granite Mountain Air Station
City: Granite Mountain
Country: United States
Elevation: 1313 ft.
Wikipedia:

Photos at Granite Mountain Air Station


   Photos courtesy of SpottingLog. You can add your own sightings and photos by signing up for a free trial today.



No photos found.

Weather at Granite Mountain Air Station


Time (UTC)DescriptionTempratureWindCloud coverageVisibilityPressureHumidity
21-Jun-2024 12:00Overcast Clouds8°C4 mph, NW89%10000m1015hPa76%
21-Jun-2024 15:00Overcast Clouds9°C4 mph, N91%10000m1015hPa74%
21-Jun-2024 18:00Overcast Clouds11°C4 mph, N94%10000m1015hPa64%
21-Jun-2024 21:00Overcast Clouds17°C4 mph, N100%10000m1014hPa49%
22-Jun-2024 00:00Overcast Clouds18°C4 mph, NW100%10000m1014hPa42%
22-Jun-2024 03:00Overcast Clouds18°C9 mph, NW100%10000m1014hPa44%
22-Jun-2024 06:00Overcast Clouds16°C7 mph, NW97%10000m1014hPa55%
22-Jun-2024 09:00Overcast Clouds10°C7 mph, N100%10000m1015hPa66%
22-Jun-2024 12:00Overcast Clouds9°C4 mph, NW100%10000m1015hPa63%
22-Jun-2024 15:00Overcast Clouds10°C4 mph, NW100%10000m1015hPa61%
22-Jun-2024 18:00Overcast Clouds13°C4 mph, NW100%10000m1015hPa49%
22-Jun-2024 21:00Overcast Clouds15°C7 mph, NW100%10000m1015hPa44%
23-Jun-2024 00:00Overcast Clouds15°C7 mph, NW100%10000m1014hPa43%
23-Jun-2024 03:00Light Rain13°C4 mph, W100%10000m1014hPa54%
23-Jun-2024 06:00Light Rain10°C4 mph, NW100%10000m1014hPa69%
23-Jun-2024 09:00Overcast Clouds9°C4 mph, NW100%10000m1014hPa67%
23-Jun-2024 12:00Overcast Clouds8°C7 mph, NW100%10000m1014hPa61%
23-Jun-2024 15:00Overcast Clouds8°C4 mph, NW100%10000m1014hPa60%
23-Jun-2024 18:00Overcast Clouds11°C7 mph, NW100%10000m1014hPa51%
23-Jun-2024 21:00Overcast Clouds14°C9 mph, NW100%10000m1013hPa43%
24-Jun-2024 00:00Overcast Clouds16°C11 mph, NW99%10000m1012hPa41%
24-Jun-2024 03:00Overcast Clouds16°C13 mph, NW86%10000m1011hPa41%
24-Jun-2024 06:00Overcast Clouds13°C9 mph, NW90%10000m1011hPa51%
24-Jun-2024 09:00Overcast Clouds10°C7 mph, NW98%10000m1012hPa63%
24-Jun-2024 12:00Light Rain9°C7 mph, NW99%10000m1012hPa66%
24-Jun-2024 15:00Broken Clouds8°C4 mph, NW71%10000m1012hPa65%
24-Jun-2024 18:00Scattered Clouds11°C7 mph, NW44%10000m1012hPa50%
24-Jun-2024 21:00Overcast Clouds14°C9 mph, NW96%10000m1011hPa43%
25-Jun-2024 00:00Overcast Clouds16°C11 mph, NW88%10000m1011hPa40%
25-Jun-2024 03:00Broken Clouds16°C7 mph, NW66%10000m1011hPa42%
25-Jun-2024 06:00Broken Clouds13°C0 mph, E80%10000m1012hPa57%
25-Jun-2024 09:00Broken Clouds9°C4 mph, E79%10000m1013hPa76%
25-Jun-2024 12:00Broken Clouds6°C4 mph, SE59%10000m1013hPa89%
25-Jun-2024 15:00Few Clouds7°C7 mph, SE11%10000m1014hPa87%
25-Jun-2024 18:00Scattered Clouds11°C11 mph, S29%10000m1014hPa61%
25-Jun-2024 21:00Overcast Clouds14°C11 mph, S87%10000m1014hPa45%
26-Jun-2024 00:00Broken Clouds15°C11 mph, S74%10000m1014hPa37%
26-Jun-2024 03:00Overcast Clouds15°C11 mph, S100%10000m1013hPa41%
26-Jun-2024 06:00Overcast Clouds12°C7 mph, S100%10000m1014hPa48%
26-Jun-2024 09:00Overcast Clouds9°C4 mph, S100%10000m1014hPa52%